Time;durP1;ratioP1;P1;durP2;ratioP2;P2;SDS_P1;SDS_P2;PMS_P1;PMS_P2;Temp;Humidity;BMP_temperature;BMP_pressure;BME280_temperature;BME280_humidity;BME280_pressure;Samples;Min_cycle;Max_cycle;Signal;HPM_P1;HPM_P2
2021/01/17 00:00:15;;;;;;;13.67;6.40;;;-14.60;76.70;;;;;;5014645;28;20014;-78
2021/01/17 00:02:44;;;;;;;10.68;6.15;;;-14.50;76.50;;;;;;5012624;28;20315;-79
2021/01/17 00:05:18;;;;;;;10.48;7.30;;;-14.60;75.70;;;;;;5003482;28;20018;-77
2021/01/17 00:07:44;;;;;;;12.13;8.45;;;-14.60;75.40;;;;;;5013402;28;20521;-77
2021/01/17 00:10:12;;;;;;;8.17;6.80;;;-14.60;75.30;;;;;;5014073;28;20050;-79
2021/01/17 00:12:39;;;;;;;10.48;6.25;;;-14.60;75.00;;;;;;5013793;28;20033;-77
2021/01/17 00:15:09;;;;;;;12.40;6.18;;;-14.60;75.80;;;;;;5014231;28;20030;-76
2021/01/17 00:17:36;;;;;;;8.82;5.15;;;-14.60;75.80;;;;;;5019965;28;20021;-77
2021/01/17 00:20:23;;;;;;;6.50;5.30;;;-14.60;75.50;;;;;;4997024;28;20115;-78
2021/01/17 00:22:53;;;;;;;15.40;9.25;;;-14.60;75.90;;;;;;5011859;28;20041;-75
2021/01/17 00:25:20;;;;;;;10.57;6.85;;;-14.60;76.30;;;;;;5012945;28;20103;-78
2021/01/17 00:27:50;;;;;;;;;;;-14.60;76.30;;;;;;5013191;28;20021;-77
2021/01/17 00:30:19;;;;;;;8.48;5.38;;;-14.60;76.20;;;;;;5013274;28;20362;-76
2021/01/17 00:32:48;;;;;;;8.52;4.00;;;-14.60;76.30;;;;;;5013141;28;20052;-77
2021/01/17 00:35:15;;;;;;;11.02;6.80;;;-14.60;76.20;;;;;;5013091;28;20034;-77
2021/01/17 00:37:41;;;;;;;13.43;7.78;;;-14.60;76.80;;;;;;5012828;28;20395;-78
2021/01/17 00:40:07;;;;;;;11.63;6.20;;;-14.60;76.60;;;;;;5012862;28;20026;-76
2021/01/17 00:42:33;;;;;;;15.18;8.80;;;-14.60;76.30;;;;;;5013750;28;20209;-78
2021/01/17 00:44:59;;;;;;;11.65;6.85;;;-14.60;76.30;;;;;;5014141;28;20069;-77
2021/01/17 00:47:25;;;;;;;10.50;7.07;;;-14.60;76.30;;;;;;4999731;28;20038;-76
2021/01/17 00:49:51;;;;;;;19.00;7.07;;;-14.60;76.50;;;;;;5013413;28;20037;-78
2021/01/17 00:52:25;;;;;;;11.57;5.97;;;-14.60;76.90;;;;;;5013392;28;20060;-77
2021/01/17 00:54:51;;;;;;;12.73;7.05;;;-14.60;76.60;;;;;;5012816;28;20422;-77
2021/01/17 00:57:17;;;;;;;11.60;6.57;;;-14.60;76.60;;;;;;5012727;28;20105;-78
2021/01/17 00:59:43;;;;;;;10.87;6.37;;;-14.50;77.00;;;;;;5015877;28;20065;-76
2021/01/17 01:02:09;;;;;;;15.63;9.60;;;-14.50;76.60;;;;;;5017734;28;20042;-77
2021/01/17 01:04:35;;;;;;;14.30;7.13;;;-14.50;75.60;;;;;;5020555;28;20097;-76
2021/01/17 01:07:01;;;;;;;8.98;5.65;;;-14.50;75.20;;;;;;5021695;28;20030;-76
2021/01/17 01:09:27;;;;;;;11.67;7.87;;;-14.60;75.70;;;;;;5018212;28;20458;-76
2021/01/17 01:11:53;;;;;;;16.25;8.48;;;-14.60;76.00;;;;;;5020904;28;20038;-77
2021/01/17 01:14:19;;;;;;;12.37;4.70;;;-14.60;75.60;;;;;;5018575;28;20105;-76
2021/01/17 01:16:55;;;;;;;10.07;5.35;;;-14.60;75.40;;;;;;5016439;28;20910;-77
2021/01/17 01:19:21;;;;;;;11.98;6.10;;;-14.60;76.60;;;;;;4998593;28;20036;-76
2021/01/17 01:21:47;;;;;;;11.95;5.47;;;-14.60;76.30;;;;;;5014916;28;20018;-77
2021/01/17 01:24:13;;;;;;;11.68;6.32;;;-14.60;76.30;;;;;;5010331;28;20080;-77
2021/01/17 01:26:44;;;;;;;16.27;9.52;;;-14.60;76.10;;;;;;5010011;28;20026;-77
2021/01/17 01:29:12;;;;;;;15.95;8.20;;;-14.60;74.90;;;;;;4993719;28;20049;-75
2021/01/17 01:31:39;;;;;;;9.38;5.97;;;-14.60;74.50;;;;;;5010562;28;20140;-76
2021/01/17 01:34:05;;;;;;;12.95;7.72;;;-14.70;74.50;;;;;;5016075;28;20017;-77
2021/01/17 01:36:35;;;;;;;18.42;7.35;;;-14.70;74.30;;;;;;5016002;28;20069;-77
2021/01/17 01:39:02;;;;;;;12.35;6.65;;;-14.80;74.20;;;;;;5016028;28;20023;-76
2021/01/17 01:41:30;;;;;;;14.15;6.65;;;-14.80;74.50;;;;;;5015926;28;20029;-77
2021/01/17 01:43:56;;;;;;;15.63;6.93;;;-14.80;73.80;;;;;;5015978;28;20022;-77
2021/01/17 01:46:24;;;;;;;11.05;5.60;;;-14.80;74.00;;;;;;5015782;28;20528;-76
2021/01/17 01:48:52;;;;;;;8.77;5.10;;;-14.80;74.00;;;;;;5016206;28;20030;-77
2021/01/17 01:51:20;;;;;;;10.88;6.60;;;-14.90;73.70;;;;;;5016211;28;20414;-76
2021/01/17 01:53:46;;;;;;;13.10;6.90;;;-14.90;72.10;;;;;;5015852;28;20037;-77
2021/01/17 01:56:16;;;;;;;15.77;7.40;;;-15.00;71.10;;;;;;5015554;28;20475;-76
2021/01/17 01:58:42;;;;;;;15.95;7.32;;;-15.10;71.50;;;;;;5015455;28;20029;-78
2021/01/17 02:01:09;;;;;;;12.90;8.10;;;-15.10;72.10;;;;;;5015605;28;20018;-77
2021/01/17 02:03:35;;;;;;;12.25;7.00;;;-15.20;72.20;;;;;;5015794;28;20053;-77
2021/01/17 02:06:02;;;;;;;8.67;4.63;;;-15.30;71.60;;;;;;5015624;28;20375;-77
2021/01/17 02:08:37;;;;;;;13.50;8.18;;;-15.40;72.00;;;;;;5012196;28;20274;-78
2021/01/17 02:11:14;;;;;;;11.73;7.10;;;-15.50;72.10;;;;;;5014556;28;20383;-76
2021/01/17 02:13:46;;;;;;;18.27;8.57;;;-15.60;71.60;;;;;;5016740;28;20026;-78
2021/01/17 02:16:13;;;;;;;10.43;5.03;;;-15.60;72.10;;;;;;5018365;28;20030;-78
2021/01/17 02:18:43;;;;;;;12.32;6.90;;;-15.70;72.30;;;;;;5015405;28;20364;-75
2021/01/17 02:21:10;;;;;;;10.55;6.85;;;-15.70;73.10;;;;;;5015150;28;20021;-77
2021/01/17 02:23:41;;;;;;;13.02;7.10;;;-15.80;73.50;;;;;;5015142;28;20041;-76
2021/01/17 02:26:10;;;;;;;12.43;5.78;;;-15.80;73.10;;;;;;5015335;28;20060;-77
2021/01/17 02:28:37;;;;;;;9.65;7.57;;;-15.80;73.40;;;;;;5015075;28;20030;-78
2021/01/17 02:31:04;;;;;;;12.05;5.88;;;-15.80;73.40;;;;;;5015200;28;20468;-76
2021/01/17 02:33:32;;;;;;;9.90;6.68;;;-15.90;73.60;;;;;;5017399;28;20030;-76
2021/01/17 02:36:04;;;;;;;6.15;4.25;;;-15.80;73.80;;;;;;5016669;28;20498;-77
2021/01/17 02:38:33;;;;;;;10.93;5.68;;;-15.80;74.30;;;;;;5010446;28;20030;-78
2021/01/17 02:41:25;;;;;;;7.95;5.75;;;-15.90;74.50;;;;;;5014862;28;20026;-78
2021/01/17 02:43:51;;;;;;;9.85;5.80;;;-15.90;73.80;;;;;;5013162;28;20026;-77
2021/01/17 02:46:17;;;;;;;11.77;8.82;;;-15.90;73.10;;;;;;5014902;28;20026;-76
2021/01/17 02:48:43;;;;;;;6.73;5.13;;;-15.90;73.40;;;;;;5014740;28;20430;-77
2021/01/17 02:51:09;;;;;;;6.07;4.22;;;-16.00;73.60;;;;;;5014619;28;20068;-77
2021/01/17 02:53:43;;;;;;;16.93;7.83;;;-16.00;73.90;;;;;;5014665;28;20022;-77
2021/01/17 02:56:15;;;;;;;13.77;8.23;;;-16.00;74.20;;;;;;5014613;28;20388;-77
2021/01/17 02:58:42;;;;;;;10.88;8.55;;;-16.00;74.20;;;;;;5014494;28;20479;-78
2021/01/17 03:01:11;;;;;;;10.63;5.55;;;-16.10;73.30;;;;;;5020241;28;20041;-76
2021/01/17 03:03:41;;;;;;;15.32;6.35;;;-16.10;73.30;;;;;;5024379;28;20049;-77
2021/01/17 03:06:10;;;;;;;13.52;5.95;;;-16.20;73.40;;;;;;5011490;28;20054;-77
2021/01/17 03:08:37;;;;;;;10.02;4.45;;;-16.20;73.40;;;;;;5018039;28;20018;-76
2021/01/17 03:11:04;;;;;;;12.38;6.95;;;-16.20;73.80;;;;;;5014979;28;20121;-76
2021/01/17 03:13:35;;;;;;;9.85;5.22;;;-16.30;75.00;;;;;;5014383;28;20056;-77
2021/01/17 03:16:01;;;;;;;16.27;7.30;;;-16.20;74.70;;;;;;5013935;28;20034;-77
2021/01/17 03:18:27;;;;;;;13.32;5.93;;;-16.30;74.80;;;;;;5014614;28;20500;-77
2021/01/17 03:20:52;;;;;;;10.70;4.60;;;-16.30;75.00;;;;;;5016128;28;20119;-76
2021/01/17 03:23:18;;;;;;;10.37;4.90;;;-16.30;75.10;;;;;;5016786;28;20022;-77
2021/01/17 03:25:44;;;;;;;10.33;5.77;;;-16.30;75.10;;;;;;5015185;28;20030;-78
2021/01/17 03:28:10;;;;;;;7.97;4.47;;;-16.30;75.00;;;;;;5014084;28;20109;-78
2021/01/17 03:30:36;;;;;;;10.43;7.10;;;-16.30;74.90;;;;;;5013912;28;20364;-77
2021/01/17 03:33:02;;;;;;;12.63;5.90;;;-16.40;74.00;;;;;;5013799;28;20072;-78
2021/01/17 03:35:27;;;;;;;11.02;5.43;;;-16.40;73.60;;;;;;5013601;28;20030;-76
2021/01/17 03:37:55;;;;;;;10.25;8.32;;;-16.40;73.70;;;;;;4996128;28;20077;-78
2021/01/17 03:40:22;;;;;;;10.10;4.60;;;-16.50;74.20;;;;;;5013443;28;20045;-77
2021/01/17 03:42:48;;;;;;;15.13;6.05;;;-16.50;74.30;;;;;;5013873;28;20037;-78
2021/01/17 03:45:14;;;;;;;7.95;5.40;;;-16.50;74.80;;;;;;5013681;28;20076;-77
2021/01/17 03:47:39;;;;;;;10.90;5.80;;;-16.50;74.90;;;;;;5014071;28;20018;-78
2021/01/17 03:50:06;;;;;;;15.87;8.20;;;-16.50;75.00;;;;;;5014155;28;20064;-77
2021/01/17 03:52:31;;;;;;;12.30;5.40;;;-16.50;74.50;;;;;;5013679;28;20443;-77
2021/01/17 03:54:57;;;;;;;15.00;5.53;;;-16.60;74.30;;;;;;5007667;28;20065;-76
2021/01/17 03:57:23;;;;;;;10.97;7.27;;;-16.60;74.50;;;;;;5013205;28;20478;-77
2021/01/17 03:59:49;;;;;;;14.97;5.43;;;-16.60;74.70;;;;;;5013396;28;20090;-78
2021/01/17 04:02:15;;;;;;;7.03;3.53;;;-16.60;75.10;;;;;;5013391;28;20491;-77
2021/01/17 04:04:41;;;;;;;9.90;5.57;;;-16.60;75.00;;;;;;5013371;28;20072;-76
2021/01/17 04:07:09;;;;;;;7.53;5.47;;;-16.70;74.90;;;;;;5013075;28;20029;-77
2021/01/17 04:09:35;;;;;;;9.00;4.90;;;-16.70;74.90;;;;;;5013030;28;20095;-77
2021/01/17 04:12:01;;;;;;;11.87;5.97;;;-16.70;75.10;;;;;;5012863;28;20026;-78
2021/01/17 04:14:27;;;;;;;12.33;5.20;;;-16.80;75.40;;;;;;4995559;28;20132;-76
2021/01/17 04:16:53;;;;;;;14.80;7.70;;;-16.80;75.60;;;;;;5006944;28;20487;-76
2021/01/17 04:19:19;;;;;;;11.43;6.07;;;-16.80;75.60;;;;;;5007775;28;20422;-77
2021/01/17 04:21:45;;;;;;;15.27;6.63;;;-16.80;75.40;;;;;;5012857;28;20110;-78
2021/01/17 04:24:12;;;;;;;11.32;5.65;;;-16.80;75.30;;;;;;4995196;28;20498;-76
2021/01/17 04:26:38;;;;;;;10.57;5.68;;;-16.80;75.30;;;;;;5012690;28;20030;-78
2021/01/17 04:29:04;;;;;;;8.18;5.65;;;-16.80;75.40;;;;;;5012894;28;20029;-77
2021/01/17 04:31:48;;;;;;;9.45;5.63;;;-16.90;75.20;;;;;;5013255;28;20092;-77
2021/01/17 04:34:14;;;;;;;11.43;4.95;;;-16.90;74.70;;;;;;5006246;28;20022;-77
2021/01/17 04:36:46;;;;;;;13.33;5.87;;;-17.00;74.30;;;;;;5012840;28;20201;-77
2021/01/17 04:39:12;;;;;;;9.77;5.90;;;-17.00;74.60;;;;;;4987828;28;20438;-76
2021/01/17 04:41:42;;;;;;;12.13;5.50;;;-17.10;74.90;;;;;;5012834;28;20022;-76
2021/01/17 04:44:09;;;;;;;16.02;6.18;;;-17.10;75.30;;;;;;5012757;28;20014;-77
2021/01/17 04:46:37;;;;;;;13.68;6.70;;;-17.10;75.10;;;;;;4995738;28;20117;-77
2021/01/17 04:49:06;;;;;;;6.75;4.35;;;-17.20;75.10;;;;;;5027493;28;20028;-77
2021/01/17 04:51:32;;;;;;;13.38;7.53;;;-17.10;75.40;;;;;;5016272;28;20022;-78
2021/01/17 04:54:00;;;;;;;15.02;7.47;;;-17.20;75.60;;;;;;5013768;28;20056;-77
2021/01/17 04:56:34;;;;;;;15.43;5.30;;;-17.10;75.10;;;;;;5013627;28;20069;-76
2021/01/17 04:59:12;;;;;;;12.07;5.60;;;-17.20;74.70;;;;;;5002105;28;20331;-78
2021/01/17 05:01:47;;;;;;;10.13;5.75;;;-17.30;74.60;;;;;;5008655;28;20038;-78
2021/01/17 05:04:37;;;;;;;16.42;7.03;;;-17.30;74.80;;;;;;5012891;28;20034;-78
2021/01/17 05:07:23;;;;;;;9.73;6.20;;;-17.30;74.80;;;;;;5022721;28;20026;-78
2021/01/17 05:09:59;;;;;;;10.10;6.05;;;-17.30;75.10;;;;;;5013764;28;20025;-77
2021/01/17 05:12:35;;;;;;;15.38;6.75;;;-17.20;75.40;;;;;;5011089;28;20109;-78
2021/01/17 05:15:03;;;;;;;17.90;9.43;;;-17.30;75.50;;;;;;5003247;28;20047;-77
2021/01/17 05:17:40;;;;;;;12.70;5.88;;;-17.20;75.30;;;;;;5012260;28;20026;-77
2021/01/17 05:20:08;;;;;;;14.95;6.45;;;-17.30;74.40;;;;;;5012863;28;20114;-77
2021/01/17 05:22:56;;;;;;;6.55;3.47;;;-17.30;73.80;;;;;;5012447;28;20120;-78
2021/01/17 05:25:28;;;;;;;7.38;4.28;;;-17.30;73.90;;;;;;5012449;28;20034;-77
2021/01/17 05:27:58;;;;;;;9.38;4.13;;;-17.30;74.30;;;;;;5012170;28;20025;-78
2021/01/17 05:30:24;;;;;;;15.43;6.85;;;-17.30;74.30;;;;;;5012684;28;20053;-77
2021/01/17 05:32:54;;;;;;;7.32;3.90;;;-17.30;74.30;;;;;;5012498;28;20030;-78
2021/01/17 05:35:23;;;;;;;6.50;5.43;;;-17.40;74.30;;;;;;5012217;28;20038;-77
2021/01/17 05:37:54;;;;;;;16.38;6.93;;;-17.40;74.40;;;;;;5015001;28;20026;-77
2021/01/17 05:40:21;;;;;;;13.80;6.25;;;-17.40;74.30;;;;;;5015369;28;20022;-75
2021/01/17 05:42:48;;;;;;;9.30;7.03;;;-17.40;74.30;;;;;;5012475;28;20037;-76
2021/01/17 05:45:17;;;;;;;12.82;7.13;;;-17.40;74.40;;;;;;5003599;28;20047;-75
2021/01/17 05:48:03;;;;;;;14.00;8.95;;;-17.40;74.30;;;;;;5016214;28;20026;-77
2021/01/17 05:50:32;;;;;;;;;;;-17.40;74.00;;;;;;5016076;28;20037;-78
2021/01/17 05:53:00;;;;;;;8.35;4.53;;;-17.40;73.40;;;;;;4998179;28;19905;-79
2021/01/17 05:55:37;;;;;;;13.95;7.85;;;-17.50;72.80;;;;;;5015570;28;20116;-77
2021/01/17 05:58:26;;;;;;;10.45;6.18;;;-17.60;73.00;;;;;;5016057;28;20375;-76
2021/01/17 06:01:14;;;;;;;10.65;6.30;;;-17.60;72.60;;;;;;5014858;28;20026;-77
2021/01/17 06:03:49;;;;;;;14.50;7.60;;;-17.70;72.10;;;;;;5016011;28;20030;-77
2021/01/17 06:06:31;;;;;;;12.85;5.50;;;-17.70;72.60;;;;;;4986011;28;20472;-77
2021/01/17 06:08:58;;;;;;;15.70;6.68;;;-17.80;72.70;;;;;;5014353;28;20032;-78
2021/01/17 06:11:25;;;;;;;7.22;4.93;;;-17.80;73.20;;;;;;5015748;28;20030;-78
2021/01/17 06:13:57;;;;;;;12.07;6.40;;;-17.80;73.60;;;;;;5015277;28;20033;-78
2021/01/17 06:16:32;;;;;;;12.43;7.90;;;-17.80;73.50;;;;;;5008263;28;20037;-78
2021/01/17 06:19:01;;;;;;;11.33;7.83;;;-17.70;73.00;;;;;;5009467;28;20025;-77
2021/01/17 06:21:29;;;;;;;8.93;4.95;;;-17.80;72.80;;;;;;5018042;28;20087;-79
2021/01/17 06:23:56;;;;;;;8.43;5.35;;;-17.80;72.90;;;;;;5012394;28;20021;-77
2021/01/17 06:26:30;;;;;;;17.10;8.25;;;-17.80;73.10;;;;;;5016194;28;20107;-78
2021/01/17 06:28:57;;;;;;;6.88;4.35;;;-17.80;73.60;;;;;;5008375;28;20029;-78
2021/01/17 06:31:28;;;;;;;6.72;4.78;;;-17.80;74.10;;;;;;5015339;28;20022;-79
2021/01/17 06:34:15;;;;;;;14.45;6.10;;;-17.70;74.10;;;;;;5006037;28;20034;-77
2021/01/17 06:36:43;;;;;;;9.82;4.45;;;-17.60;74.20;;;;;;5015487;28;20026;-78
2021/01/17 06:39:23;;;;;;;10.65;6.13;;;-17.60;74.30;;;;;;5020447;28;20018;-77
2021/01/17 06:41:54;;;;;;;7.50;4.35;;;-17.50;74.30;;;;;;5018716;28;20438;-79
2021/01/17 06:44:32;;;;;;;17.60;6.88;;;-17.50;74.10;;;;;;5014761;28;20045;-78
2021/01/17 06:46:59;;;;;;;10.55;4.15;;;-17.40;74.10;;;;;;5012607;28;20022;-76
2021/01/17 06:49:25;;;;;;;;;;;-17.40;74.20;;;;;;5015161;28;20028;-76
2021/01/17 06:51:52;;;;;;;11.93;4.90;;;-17.30;74.40;;;;;;5014562;28;20482;-77
2021/01/17 06:54:19;;;;;;;8.82;4.00;;;-17.30;74.10;;;;;;5014366;28;20041;-77
2021/01/17 06:56:50;;;;;;;17.02;7.47;;;-17.30;73.90;;;;;;5013499;28;20037;-77
2021/01/17 06:59:37;;;;;;;9.20;4.03;;;-17.30;73.70;;;;;;5014288;28;20022;-78
2021/01/17 07:02:17;;;;;;;8.20;4.88;;;-17.30;73.20;;;;;;5014593;28;20125;-78
2021/01/17 07:04:52;;;;;;;6.63;5.30;;;-17.30;72.90;;;;;;5003720;28;20128;-78
2021/01/17 07:07:39;;;;;;;15.35;7.60;;;-17.30;72.70;;;;;;5021267;28;20022;-76
2021/01/17 07:10:10;;;;;;;16.70;7.00;;;-17.30;72.80;;;;;;5014931;28;20480;-78
2021/01/17 07:12:53;;;;;;;10.82;6.75;;;-17.30;72.80;;;;;;5016117;28;20024;-78
2021/01/17 07:15:42;;;;;;;20.45;5.90;;;-17.30;72.80;;;;;;4995803;28;20080;-77
2021/01/17 07:18:13;;;;;;;10.40;5.75;;;-17.30;72.90;;;;;;5009842;28;20029;-77
2021/01/17 07:20:44;;;;;;;14.35;5.55;;;-17.30;72.80;;;;;;5004027;28;20023;-78
2021/01/17 07:23:11;;;;;;;13.70;7.72;;;-17.20;72.60;;;;;;5008214;28;20018;-77
2021/01/17 07:25:40;;;;;;;8.98;6.50;;;-17.20;73.10;;;;;;4996568;28;20088;-78
2021/01/17 07:28:11;;;;;;;11.98;6.45;;;-17.20;72.00;;;;;;5014332;28;20058;-78
2021/01/17 07:30:39;;;;;;;13.48;7.32;;;-17.20;71.60;;;;;;5006186;28;20026;-77
2021/01/17 07:33:07;;;;;;;14.85;5.03;;;-17.20;71.30;;;;;;5009544;28;20022;-76
2021/01/17 07:35:45;;;;;;;12.88;5.85;;;-17.20;71.60;;;;;;5013823;28;20038;-77
2021/01/17 07:38:35;;;;;;;11.55;4.50;;;-17.10;71.90;;;;;;5005167;28;20022;-77
2021/01/17 07:41:09;;;;;;;9.38;4.93;;;-17.10;71.40;;;;;;5009181;28;20026;-75
2021/01/17 07:43:43;;;;;;;10.85;4.70;;;-17.10;71.10;;;;;;5011679;28;20022;-79
2021/01/17 07:46:14;;;;;;;8.82;6.47;;;-17.10;71.70;;;;;;5014324;28;20018;-79
2021/01/17 07:48:42;;;;;;;15.48;6.90;;;-17.00;72.10;;;;;;4996385;28;20079;-77
2021/01/17 07:51:11;;;;;;;15.95;8.82;;;-16.90;72.40;;;;;;5008439;28;20053;-79
2021/01/17 07:53:36;;;;;;;14.50;7.90;;;-16.80;72.50;;;;;;5011411;28;20483;-78
2021/01/17 07:56:08;;;;;;;13.87;5.87;;;-16.70;71.90;;;;;;5008380;28;20036;-77
2021/01/17 07:58:39;;;;;;;9.15;6.13;;;-16.70;71.30;;;;;;5015579;28;20034;-77
2021/01/17 08:01:05;;;;;;;11.70;7.38;;;-16.60;69.90;;;;;;5003566;28;20052;-79
2021/01/17 08:03:31;;;;;;;10.33;5.43;;;-16.60;70.20;;;;;;4996031;28;20120;-78
2021/01/17 08:05:57;;;;;;;7.50;4.67;;;-16.50;70.80;;;;;;5010095;28;20022;-78
2021/01/17 08:08:35;;;;;;;9.02;4.60;;;-16.40;71.60;;;;;;5009207;28;20037;-76
2021/01/17 08:11:02;;;;;;;10.05;5.47;;;-16.30;72.10;;;;;;5013213;28;20022;-76
2021/01/17 08:13:34;;;;;;;;;;;-16.20;71.40;;;;;;5015939;28;20044;-81
2021/01/17 08:16:10;;;;;;;11.43;5.72;;;-16.10;71.60;;;;;;5013159;28;19944;-79
2021/01/17 08:18:37;;;;;;;12.98;6.90;;;-15.90;72.20;;;;;;5013929;28;20046;-79
2021/01/17 08:21:21;;;;;;;19.65;9.85;;;-15.70;73.10;;;;;;5013023;28;20077;-79
2021/01/17 08:24:19;;;;;;;18.77;10.45;;;-15.50;72.00;;;;;;4996074;28;20014;-79
2021/01/17 08:27:04;;;;;;;10.65;6.18;;;-15.30;70.80;;;;;;4958964;28;20038;-79
2021/01/17 08:29:29;;;;;;;6.90;4.70;;;-15.10;70.60;;;;;;5017842;28;20096;-78
2021/01/17 08:31:55;;;;;;;18.90;6.57;;;-15.00;69.70;;;;;;5024310;28;20018;-79
2021/01/17 08:34:27;;;;;;;10.65;6.68;;;-14.90;69.20;;;;;;5018675;28;20360;-78
2021/01/17 08:36:56;;;;;;;11.95;5.95;;;-14.90;68.70;;;;;;5013762;28;20525;-79
2021/01/17 08:39:45;;;;;;;7.78;4.60;;;-15.00;67.30;;;;;;5013167;28;20080;-79
2021/01/17 08:42:50;;;;;;;11.93;6.53;;;-15.10;66.90;;;;;;5003896;28;20041;-79
2021/01/17 08:45:18;;;;;;;15.13;6.70;;;-15.20;67.50;;;;;;4933008;29;20028;-81
2021/01/17 08:47:45;;;;;;;4.47;2.85;;;-15.20;67.90;;;;;;4934227;29;20027;-81
2021/01/17 08:50:29;;;;;;;12.75;6.05;;;-15.20;68.60;;;;;;4933925;28;20166;-82
2021/01/17 08:53:15;;;;;;;8.63;5.63;;;-15.20;69.20;;;;;;4936946;29;20035;-84
2021/01/17 08:55:49;;;;;;;12.90;6.38;;;-15.30;68.60;;;;;;4933757;28;20039;-83
2021/01/17 08:58:35;;;;;;;14.35;7.43;;;-15.30;67.80;;;;;;4946257;29;20031;-83
2021/01/17 09:01:06;;;;;;;11.52;5.60;;;-15.40;68.10;;;;;;4949744;29;20039;-83
2021/01/17 09:03:37;;;;;;;20.90;7.85;;;-15.50;68.20;;;;;;4937510;29;20043;-83
2021/01/17 09:06:26;;;;;;;14.68;7.20;;;-15.50;68.30;;;;;;4934764;29;20032;-84
2021/01/17 09:08:55;;;;;;;16.88;7.45;;;-15.60;67.70;;;;;;4922734;29;20448;-83
2021/01/17 09:11:42;;;;;;;13.63;6.03;;;-15.70;67.60;;;;;;4935817;29;20059;-84
2021/01/17 09:14:10;;;;;;;11.40;6.82;;;-15.90;68.10;;;;;;4934392;29;20052;-83
2021/01/17 09:16:58;;;;;;;12.02;6.75;;;-16.00;68.70;;;;;;5000422;28;20133;-85
2021/01/17 09:19:33;;;;;;;18.05;9.15;;;-15.90;69.50;;;;;;4980827;28;20034;-83
2021/01/17 09:22:08;;;;;;;9.68;5.30;;;-15.90;69.80;;;;;;5013203;28;20022;-85
2021/01/17 09:24:40;;;;;;;15.35;6.38;;;-15.80;69.10;;;;;;5026864;28;20155;-81
2021/01/17 09:27:08;;;;;;;13.88;7.95;;;-15.90;70.00;;;;;;5023053;28;20411;-84
2021/01/17 09:29:36;;;;;;;16.48;8.35;;;-15.80;69.90;;;;;;5018669;28;20056;-84
2021/01/17 09:32:20;;;;;;;13.27;7.13;;;-15.80;70.20;;;;;;5019825;28;20010;-83
2021/01/17 09:34:47;;;;;;;10.15;5.90;;;-15.70;70.60;;;;;;5000659;28;20383;-84
2021/01/17 09:37:17;;;;;;;16.33;6.28;;;-15.60;70.90;;;;;;5000556;28;20096;-85
2021/01/17 09:39:51;;;;;;;14.63;6.65;;;-15.50;70.80;;;;;;5008402;28;20022;-85
2021/01/17 09:42:19;;;;;;;17.83;8.13;;;-15.50;70.20;;;;;;5013661;28;20458;-85
2021/01/17 09:44:52;;;;;;;11.00;5.40;;;-15.50;69.80;;;;;;5004786;28;20447;-84
2021/01/17 09:47:20;;;;;;;10.73;6.85;;;-15.50;69.40;;;;;;5017553;28;20053;-84
2021/01/17 09:49:47;;;;;;;15.18;6.35;;;-15.60;69.50;;;;;;5017164;28;20041;-84
2021/01/17 09:52:23;;;;;;;;;;;-15.70;68.70;;;;;;5018195;28;20022;-84
2021/01/17 09:54:51;;;;;;;13.98;6.70;;;-15.70;69.00;;;;;;5007299;28;19905;-85
2021/01/17 09:57:25;;;;;;;12.93;6.10;;;-15.80;69.00;;;;;;5015503;28;20041;-85
2021/01/17 09:59:53;;;;;;;14.73;6.18;;;-15.80;69.30;;;;;;5000577;28;20029;-84
2021/01/17 10:02:23;;;;;;;8.15;5.03;;;-15.80;69.90;;;;;;5008828;28;20080;-84
2021/01/17 10:04:50;;;;;;;12.05;6.18;;;-15.70;70.40;;;;;;5017804;28;20087;-85
2021/01/17 10:07:22;;;;;;;15.43;9.02;;;-15.60;71.00;;;;;;5006530;28;20018;-85
2021/01/17 10:09:49;;;;;;;21.05;9.02;;;-15.50;70.80;;;;;;5018632;28;20034;-84
2021/01/17 10:12:19;;;;;;;14.73;6.88;;;-15.40;70.90;;;;;;5017174;28;20022;-84
2021/01/17 10:14:45;;;;;;;13.30;6.80;;;-15.30;70.90;;;;;;5018116;28;20025;-85
2021/01/17 10:17:12;;;;;;;11.02;7.13;;;-15.00;71.30;;;;;;5020980;28;20033;-84
2021/01/17 10:19:39;;;;;;;13.00;6.43;;;-14.90;72.10;;;;;;5019393;28;20369;-84
2021/01/17 10:22:13;;;;;;;20.73;9.23;;;-14.60;71.90;;;;;;5033163;28;20026;-84
2021/01/17 10:24:39;;;;;;;13.25;7.40;;;-14.30;71.70;;;;;;5031165;28;20064;-85
2021/01/17 10:27:06;;;;;;;17.63;8.85;;;-14.00;70.30;;;;;;5019643;28;20022;-84
2021/01/17 10:29:40;;;;;;;16.70;8.75;;;-13.70;71.40;;;;;;4987131;28;20050;-85
2021/01/17 10:32:14;;;;;;;14.05;7.47;;;-13.40;70.90;;;;;;5017716;28;20014;-83
2021/01/17 10:34:48;;;;;;;14.38;6.57;;;-13.10;69.30;;;;;;5016612;28;20479;-85
2021/01/17 10:37:16;;;;;;;23.05;7.82;;;-13.10;68.30;;;;;;5017811;28;20483;-85
2021/01/17 10:39:43;;;;;;;17.27;8.73;;;-13.00;67.20;;;;;;4999005;28;20022;-85
2021/01/17 10:42:30;;;;;;;11.20;6.40;;;-13.00;67.40;;;;;;5021298;28;20081;-84
2021/01/17 10:45:10;;;;;;;11.98;7.65;;;-13.10;66.40;;;;;;5018179;28;20057;-85
2021/01/17 10:48:12;;;;;;;6.32;4.70;;;-13.20;65.70;;;;;;4999878;28;20017;-83
2021/01/17 10:50:53;;;;;;;15.95;6.35;;;-13.20;66.30;;;;;;5014330;28;20421;-85
2021/01/17 10:53:22;;;;;;;16.02;7.47;;;-13.20;66.60;;;;;;5011238;28;20022;-84
2021/01/17 10:55:53;;;;;;;14.55;6.32;;;-13.30;66.80;;;;;;5016608;28;20112;-84
2021/01/17 10:58:35;;;;;;;15.60;8.57;;;-13.30;67.00;;;;;;5019388;28;20022;-84
2021/01/17 11:01:02;;;;;;;17.17;8.80;;;-13.30;67.10;;;;;;5010623;28;20025;-84
2021/01/17 11:03:36;;;;;;;18.77;7.65;;;-13.40;67.00;;;;;;5035588;28;20057;-84
2021/01/17 11:06:15;;;;;;;14.07;7.28;;;-13.40;67.30;;;;;;5022519;28;20030;-83
2021/01/17 11:08:55;;;;;;;13.90;8.63;;;-13.40;66.90;;;;;;4983660;28;20046;-84
2021/01/17 11:11:28;;;;;;;12.85;7.38;;;-13.50;66.20;;;;;;5008298;28;20028;-85
2021/01/17 11:14:01;;;;;;;16.52;9.15;;;-13.60;65.60;;;;;;5019529;28;20379;-85
2021/01/17 11:16:33;;;;;;;17.70;8.35;;;-13.70;66.20;;;;;;4988701;28;20380;-84
2021/01/17 11:18:59;;;;;;;16.67;6.63;;;-13.70;66.10;;;;;;5018424;28;20022;-85
2021/01/17 11:21:26;;;;;;;19.07;7.83;;;-13.80;66.70;;;;;;5020355;28;20352;-85
2021/01/17 11:23:53;;;;;;;14.60;8.18;;;-13.80;67.40;;;;;;5014956;28;20287;-85
2021/01/17 11:26:22;;;;;;;19.80;9.15;;;-13.80;67.00;;;;;;4999973;28;20022;-83
2021/01/17 11:28:53;;;;;;;13.32;7.70;;;-13.80;66.60;;;;;;4999728;28;20041;-85
2021/01/17 11:31:21;;;;;;;19.40;9.27;;;-13.80;66.50;;;;;;5017367;28;20072;-84
2021/01/17 11:33:48;;;;;;;17.27;9.88;;;-13.90;66.80;;;;;;5017909;28;20078;-84
2021/01/17 11:36:28;;;;;;;14.70;7.25;;;-13.90;67.60;;;;;;5029897;28;20060;-83
2021/01/17 11:38:54;;;;;;;21.45;10.52;;;-13.90;67.00;;;;;;5029577;28;20026;-85
2021/01/17 11:41:25;;;;;;;18.00;10.55;;;-13.90;68.00;;;;;;4999589;28;20144;-84
2021/01/17 11:44:06;;;;;;;18.42;9.15;;;-13.90;68.50;;;;;;5016196;28;20029;-82
2021/01/17 11:46:33;;;;;;;14.80;8.43;;;-14.00;68.50;;;;;;5015831;28;20033;-85
2021/01/17 11:49:00;;;;;;;21.42;8.07;;;-14.00;68.10;;;;;;5015687;28;20014;-84
2021/01/17 11:51:26;;;;;;;;;;;-14.10;68.00;;;;;;5019554;28;20026;-85
2021/01/17 11:53:52;;;;;;;14.30;8.43;;;-14.10;68.20;;;;;;5018949;28;19997;-84
2021/01/17 11:56:18;;;;;;;32.60;11.27;;;-14.20;68.40;;;;;;5015110;28;20083;-84
2021/01/17 11:58:43;;;;;;;12.02;7.22;;;-14.30;69.50;;;;;;5016539;28;20048;-85
2021/01/17 12:01:10;;;;;;;11.63;5.43;;;-14.30;69.00;;;;;;5011761;28;20029;-84
2021/01/17 12:03:43;;;;;;;11.68;7.50;;;-14.40;69.10;;;;;;5015185;28;20052;-84
2021/01/17 12:06:19;;;;;;;17.13;8.15;;;-14.40;69.40;;;;;;5007099;28;20567;-84
2021/01/17 12:08:49;;;;;;;17.88;8.68;;;-14.40;69.70;;;;;;5014288;28;20038;-83
2021/01/17 12:11:29;;;;;;;25.05;10.18;;;-14.50;69.80;;;;;;4981875;28;20046;-89
2021/01/17 12:13:56;;;;;;;23.95;11.68;;;-14.50;69.70;;;;;;5014578;28;20030;-85
2021/01/17 12:16:33;;;;;;;12.05;8.15;;;-14.60;69.80;;;;;;5002131;28;20041;-85
2021/01/17 12:18:59;;;;;;;15.15;7.32;;;-14.60;70.30;;;;;;5033992;28;20037;-85
2021/01/17 12:21:27;;;;;;;15.70;7.63;;;-14.60;70.40;;;;;;4997523;28;20050;-85
2021/01/17 12:23:54;;;;;;;19.95;8.10;;;-14.60;71.00;;;;;;4997711;28;20032;-87
2021/01/17 12:26:20;;;;;;;;;;;-14.70;71.40;;;;;;5016017;28;20036;-86
2021/01/17 12:28:47;;;;;;;17.65;9.93;;;-14.70;71.30;;;;;;5011875;28;19905;-86
2021/01/17 12:31:16;;;;;;;12.00;8.90;;;-14.70;71.10;;;;;;5018592;28;20105;-86
2021/01/17 12:33:43;;;;;;;11.50;7.75;;;-14.70;71.40;;;;;;5024554;28;20009;-86
2021/01/17 12:36:10;;;;;;;19.55;10.80;;;-14.70;72.00;;;;;;5035075;28;20010;-83
2021/01/17 12:38:36;;;;;;;22.48;8.85;;;-14.70;72.20;;;;;;5015535;28;20033;-84
2021/01/17 12:41:10;;;;;;;14.33;6.37;;;-14.80;71.90;;;;;;5018066;28;20026;-84
2021/01/17 12:43:36;;;;;;;16.38;9.57;;;-14.70;72.20;;;;;;5025875;28;20101;-84
2021/01/17 12:46:05;;;;;;;19.27;7.67;;;-14.80;72.10;;;;;;5014469;28;20057;-83
2021/01/17 12:48:32;;;;;;;17.05;8.15;;;-14.70;72.10;;;;;;5014837;28;20014;-85